createdAt,value
2022-10-22T00:02:45.241Z,63.99
2022-10-22T00:05:48.504Z,63.97
2022-10-22T00:08:51.539Z,63.93
2022-10-22T00:11:54.799Z,63.76
2022-10-22T00:14:57.676Z,63.90
2022-10-22T00:17:59.766Z,64.61
2022-10-22T00:21:02.094Z,64.35
2022-10-22T00:24:04.619Z,64.12
2022-10-22T00:27:10.367Z,63.78
2022-10-22T00:30:12.709Z,63.94
2022-10-22T00:33:15.302Z,64.20
2022-10-22T00:36:17.659Z,63.95
2022-10-22T00:39:22.964Z,63.92
2022-10-22T00:42:26.844Z,63.95
2022-10-22T00:45:29.563Z,63.74
2022-10-22T00:48:33.785Z,63.56
2022-10-22T00:51:36.620Z,63.76
2022-10-22T00:54:41.322Z,64.19
2022-10-22T00:57:43.993Z,63.60
2022-10-22T01:00:46.023Z,63.72
2022-10-22T01:03:49.544Z,63.79
2022-10-22T01:06:52.159Z,64.22
2022-10-22T01:10:20.198Z,63.91
2022-10-22T01:13:37.162Z,64.31
2022-10-22T01:17:09.729Z,64.25
2022-10-22T01:20:33.134Z,64.24
2022-10-22T01:24:22.863Z,63.85
2022-10-22T01:28:19.790Z,63.53
2022-10-22T01:31:23.947Z,63.42
2022-10-22T01:34:28.230Z,63.56
2022-10-22T01:37:34.932Z,63.08
2022-10-22T01:40:37.799Z,63.29
2022-10-22T01:43:40.339Z,63.83
2022-10-22T01:46:44.477Z,63.00
2022-10-22T01:50:09.474Z,63.52
2022-10-22T01:53:38.541Z,63.34
2022-10-22T01:57:19.203Z,63.63
2022-10-22T02:00:22.166Z,63.38
2022-10-22T02:03:38.492Z,63.29
2022-10-22T02:06:48.774Z,63.81
2022-10-22T02:09:55.333Z,63.64
2022-10-22T02:13:02.077Z,63.31
2022-10-22T02:16:11.588Z,63.58
2022-10-22T02:19:25.310Z,63.25
2022-10-22T02:22:28.748Z,63.01
2022-10-22T02:25:36.339Z,62.98
2022-10-22T02:29:08.216Z,63.25
2022-10-22T02:32:19.387Z,63.44
2022-10-22T02:35:24.843Z,63.17
2022-10-22T02:38:28.467Z,62.99
2022-10-22T02:41:31.023Z,63.12
2022-10-22T02:44:33.246Z,63.26
2022-10-22T02:47:35.475Z,63.49
2022-10-22T02:50:37.627Z,63.38
2022-10-22T02:53:39.849Z,63.56
2022-10-22T02:56:42.433Z,63.22
2022-10-22T02:59:45.205Z,63.55
2022-10-22T03:02:47.470Z,63.67
2022-10-22T03:05:51.493Z,62.77
2022-10-22T03:08:53.904Z,62.96
2022-10-22T03:11:56.122Z,63.45
2022-10-22T03:14:58.255Z,63.27
2022-10-22T03:18:00.399Z,63.14
2022-10-22T03:21:22.511Z,63.39
2022-10-22T03:24:30.626Z,63.87
2022-10-22T03:27:34.158Z,63.89
2022-10-22T03:30:36.408Z,61.43
2022-10-22T03:33:38.401Z,57.35
2022-10-22T03:36:41.501Z,54.51
2022-10-22T03:39:43.780Z,56.29
2022-10-22T03:42:46.163Z,55.51
2022-10-22T03:45:48.343Z,54.20
2022-10-22T03:48:51.173Z,52.63
2022-10-22T03:51:53.245Z,54.28
2022-10-22T03:54:55.206Z,55.89
2022-10-22T03:57:57.197Z,55.97
2022-10-22T04:01:05.831Z,58.16
2022-10-22T04:04:08.367Z,62.48
2022-10-22T04:07:10.390Z,67.89
2022-10-22T04:10:12.625Z,75.71
2022-10-22T04:13:14.580Z,76.92
2022-10-22T04:16:19.821Z,76.31
2022-10-22T04:19:21.919Z,75.80
2022-10-22T04:22:24.106Z,75.81
2022-10-22T04:25:26.645Z,75.62
2022-10-22T04:28:29.364Z,73.84
2022-10-22T04:31:34.828Z,74.57
2022-10-22T04:34:38.019Z,74.17
2022-10-22T04:37:40.541Z,74.47
2022-10-22T04:40:42.782Z,82.85
2022-10-22T04:43:48.195Z,78.55
2022-10-22T04:46:51.608Z,77.48
2022-10-22T04:49:53.612Z,76.37
2022-10-22T04:52:55.856Z,75.05
2022-10-22T04:56:11.078Z,75.98
2022-10-22T04:59:14.076Z,74.76
2022-10-22T05:02:16.134Z,74.83
2022-10-22T05:05:18.163Z,74.07
2022-10-22T05:08:20.434Z,73.60
2022-10-22T05:11:25.891Z,74.91
2022-10-22T05:14:28.207Z,78.45
2022-10-22T05:17:36.730Z,75.39
2022-10-22T05:20:42.364Z,74.09
2022-10-22T05:23:46.456Z,74.30
2022-10-22T05:26:56.602Z,73.09
2022-10-22T05:29:59.440Z,73.48
2022-10-22T05:33:26.140Z,73.05
2022-10-22T05:36:28.507Z,72.46
2022-10-22T05:39:31.607Z,71.44
2022-10-22T05:42:33.669Z,71.93
2022-10-22T05:45:42.438Z,71.57
2022-10-22T05:48:44.858Z,71.81
2022-10-22T05:51:47.314Z,70.75
2022-10-22T05:54:49.625Z,70.96
2022-10-22T05:57:52.032Z,69.89
2022-10-22T06:00:54.183Z,70.47
2022-10-22T06:03:59.160Z,69.84
2022-10-22T06:07:02.875Z,69.43
2022-10-22T06:10:07.768Z,69.42
2022-10-22T06:13:10.448Z,69.35
2022-10-22T06:16:13.558Z,69.58
2022-10-22T06:19:17.544Z,69.02
2022-10-22T06:22:20.810Z,68.72
2022-10-22T06:25:24.060Z,69.06
2022-10-22T06:28:27.091Z,68.54
2022-10-22T06:31:30.346Z,67.89
2022-10-22T06:34:32.417Z,68.09
2022-10-22T06:37:34.601Z,67.90
2022-10-22T06:40:36.795Z,67.82
2022-10-22T06:43:40.648Z,68.25
2022-10-22T06:46:43.651Z,67.87
2022-10-22T06:49:45.933Z,67.70
2022-10-22T06:52:48.144Z,67.39
2022-10-22T06:55:50.128Z,67.15
2022-10-22T06:58:55.724Z,67.15
2022-10-22T07:02:01.265Z,67.11
2022-10-22T07:05:04.779Z,66.86
2022-10-22T07:08:12.604Z,66.58
2022-10-22T07:11:16.362Z,66.59
2022-10-22T07:14:19.752Z,65.63
2022-10-22T07:17:23.812Z,66.07
2022-10-22T07:20:26.021Z,65.54
2022-10-22T07:23:29.284Z,65.57
2022-10-22T07:26:32.890Z,65.64
2022-10-22T07:29:35.079Z,65.79
2022-10-22T07:32:37.411Z,65.10
2022-10-22T07:35:41.163Z,65.93
2022-10-22T07:38:50.522Z,64.39
2022-10-22T07:41:53.008Z,64.97
2022-10-22T07:44:55.197Z,64.63
2022-10-22T07:48:00.722Z,64.55
2022-10-22T07:51:02.923Z,64.02
2022-10-22T07:54:05.193Z,64.33
2022-10-22T07:57:07.262Z,64.24
2022-10-22T08:00:10.276Z,64.30
2022-10-22T08:03:16.039Z,63.80
2022-10-22T08:06:18.051Z,64.25
2022-10-22T08:09:20.121Z,63.58
2022-10-22T08:12:22.129Z,64.14
2022-10-22T08:15:25.704Z,63.66
2022-10-22T08:18:28.141Z,63.57
2022-10-22T08:21:30.374Z,63.28
2022-10-22T08:24:33.607Z,63.32
2022-10-22T08:27:40.128Z,63.12
2022-10-22T08:30:42.963Z,62.72
2022-10-22T08:33:45.609Z,62.95
2022-10-22T08:36:47.747Z,62.05
2022-10-22T08:39:50.268Z,61.59
2022-10-22T08:42:58.100Z,62.00
2022-10-22T08:46:10.246Z,62.51
2022-10-22T08:49:26.344Z,62.32
2022-10-22T08:52:29.482Z,62.12
2022-10-22T08:55:36.601Z,61.65
2022-10-22T08:58:58.364Z,61.10
2022-10-22T09:02:01.576Z,61.72
2022-10-22T09:05:14.289Z,61.59
2022-10-22T09:08:19.624Z,60.52
2022-10-22T09:11:33.694Z,60.72
2022-10-22T09:14:35.763Z,61.35
2022-10-22T09:18:21.765Z,60.20
2022-10-22T09:21:38.725Z,60.21
2022-10-22T09:24:47.772Z,60.42
2022-10-22T09:27:51.012Z,60.16
2022-10-22T09:30:53.165Z,60.99
2022-10-22T09:33:57.778Z,61.36
2022-10-22T09:38:02.779Z,60.81
2022-10-22T09:41:05.204Z,61.16
2022-10-22T09:44:07.472Z,60.76
2022-10-22T09:47:43.579Z,60.76
2022-10-22T09:51:27.099Z,60.54
2022-10-22T09:54:42.861Z,60.39
2022-10-22T09:57:55.878Z,60.37
2022-10-22T10:01:02.737Z,61.09
2022-10-22T10:04:09.792Z,60.69
2022-10-22T10:07:27.928Z,60.29
2022-10-22T10:15:03.768Z,60.95
2022-10-22T10:18:24.795Z,60.10
2022-10-22T10:22:20.669Z,60.12
2022-10-22T10:25:43.700Z,60.01
2022-10-22T10:28:54.978Z,60.27
2022-10-22T10:32:05.593Z,60.06
2022-10-22T10:35:40.165Z,60.37
2022-10-22T10:38:57.602Z,60.40
2022-10-22T10:42:16.243Z,60.27
2022-10-22T10:46:07.939Z,60.59
2022-10-22T10:49:33.589Z,60.06
2022-10-22T10:52:54.541Z,59.90
2022-10-22T10:56:27.146Z,60.06
2022-10-22T10:59:58.296Z,60.05
2022-10-22T11:03:13.175Z,59.76
2022-10-22T11:06:21.665Z,59.31
2022-10-22T11:09:30.452Z,59.56
2022-10-22T11:12:41.943Z,59.64
2022-10-22T11:15:50.870Z,59.40
2022-10-22T11:19:03.590Z,58.96
2022-10-22T11:22:12.520Z,59.39
2022-10-22T11:25:33.314Z,58.84
2022-10-22T11:28:44.578Z,59.07
2022-10-22T11:31:48.823Z,59.65
2022-10-22T11:34:55.255Z,59.26
2022-10-22T11:37:58.655Z,59.29
2022-10-22T11:41:05.971Z,59.63
2022-10-22T11:44:08.058Z,59.35
2022-10-22T11:47:49.416Z,59.22
2022-10-22T11:50:56.880Z,59.68
2022-10-22T11:54:03.130Z,59.14
2022-10-22T11:57:20.202Z,60.26
2022-10-22T12:00:41.266Z,59.73
2022-10-22T12:03:53.741Z,61.30
2022-10-22T12:07:01.489Z,60.84
2022-10-22T12:10:19.223Z,60.47
2022-10-22T12:13:28.055Z,62.45
2022-10-22T12:16:56.835Z,63.87
2022-10-22T12:20:02.976Z,62.93
2022-10-22T12:23:06.695Z,64.81
2022-10-22T12:26:24.108Z,65.20
2022-10-22T12:29:27.084Z,65.92
2022-10-22T12:32:38.067Z,66.20
2022-10-22T12:35:45.802Z,67.58
2022-10-22T12:38:49.235Z,69.13
2022-10-22T12:41:53.457Z,69.84
2022-10-22T12:44:58.420Z,70.40
2022-10-22T12:48:19.021Z,70.66
2022-10-22T12:51:21.066Z,71.58
2022-10-22T12:54:37.552Z,71.78
2022-10-22T12:57:39.713Z,71.53
2022-10-22T13:00:41.956Z,71.20
2022-10-22T13:03:47.596Z,70.85
2022-10-22T13:07:12.464Z,70.99
2022-10-22T13:10:25.056Z,71.16
2022-10-22T13:13:39.205Z,69.81
2022-10-22T13:16:42.603Z,70.94
2022-10-22T13:19:47.363Z,70.70
2022-10-22T13:23:03.944Z,70.58
2022-10-22T13:26:18.336Z,70.10
2022-10-22T13:29:22.757Z,70.13
2022-10-22T13:32:32.945Z,71.24
2022-10-22T13:35:37.717Z,71.60
2022-10-22T13:38:39.761Z,72.20
2022-10-22T13:41:42.817Z,73.04
2022-10-22T13:44:45.099Z,73.75
2022-10-22T13:47:52.630Z,71.96
2022-10-22T13:50:54.916Z,71.28
2022-10-22T13:54:03.627Z,71.69
2022-10-22T13:57:10.365Z,69.83
2022-10-22T14:00:20.821Z,68.44
2022-10-22T14:03:29.839Z,66.93
2022-10-22T14:06:39.805Z,65.01
2022-10-22T14:09:42.983Z,64.86
2022-10-22T14:12:50.795Z,63.58
2022-10-22T14:15:56.385Z,62.86
2022-10-22T14:18:59.322Z,62.88
2022-10-22T14:22:02.460Z,62.04
2022-10-22T14:25:04.726Z,62.15
2022-10-22T14:28:08.715Z,58.09
2022-10-22T14:31:11.829Z,55.34
2022-10-22T14:34:15.444Z,53.41
2022-10-22T14:37:20.558Z,54.67
2022-10-22T14:40:25.575Z,55.25
2022-10-22T14:43:31.462Z,52.65
2022-10-22T14:46:34.316Z,51.86
2022-10-22T14:49:38.850Z,53.88
2022-10-22T14:52:45.473Z,55.12
2022-10-22T14:55:49.271Z,52.92
2022-10-22T14:58:51.692Z,51.71
2022-10-22T15:01:53.840Z,52.08
2022-10-22T15:07:59.407Z,54.91
2022-10-22T15:11:03.342Z,53.58
2022-10-22T15:14:05.383Z,53.82
2022-10-22T15:17:08.437Z,54.33
2022-10-22T15:20:13.363Z,54.83
2022-10-22T15:23:17.934Z,51.41
2022-10-22T15:26:20.170Z,53.42
2022-10-22T15:29:33.795Z,53.89
2022-10-22T15:33:06.274Z,54.47
2022-10-22T15:36:17.510Z,53.04
2022-10-22T15:39:21.599Z,54.23
2022-10-22T15:42:24.672Z,55.04
2022-10-22T15:45:26.828Z,51.63
2022-10-22T15:48:29.125Z,54.67
2022-10-22T15:51:35.801Z,56.44
2022-10-22T15:58:05.104Z,51.94
2022-10-22T16:01:14.032Z,52.89
2022-10-22T16:04:30.855Z,52.36
2022-10-22T16:07:36.256Z,51.22
2022-10-22T16:10:52.852Z,53.26
2022-10-22T16:14:01.439Z,55.09
2022-10-22T16:17:12.256Z,52.54
2022-10-22T16:20:20.678Z,52.11
2022-10-22T16:23:27.394Z,53.46
2022-10-22T16:26:30.293Z,54.64
2022-10-22T16:29:58.184Z,51.05
2022-10-22T16:33:03.453Z,52.84
2022-10-22T16:36:18.399Z,54.30
2022-10-22T16:39:22.920Z,51.92
2022-10-22T16:42:25.084Z,50.32
2022-10-22T16:45:29.240Z,53.48
2022-10-22T16:48:32.680Z,54.47
2022-10-22T16:51:35.945Z,55.71
2022-10-22T16:54:42.267Z,55.38
2022-10-22T16:57:49.485Z,56.61
2022-10-22T17:00:52.101Z,57.52
2022-10-22T17:03:56.122Z,55.94
2022-10-22T17:06:58.193Z,56.76
2022-10-22T17:10:01.580Z,57.67
2022-10-22T17:13:13.107Z,58.12
2022-10-22T17:16:18.589Z,58.91
2022-10-22T17:19:21.624Z,59.83
2022-10-22T17:22:24.118Z,60.59
2022-10-22T17:25:40.150Z,61.25
2022-10-22T17:28:45.519Z,61.51
2022-10-22T17:31:50.572Z,61.80
2022-10-22T17:34:52.805Z,62.82
2022-10-22T17:38:02.248Z,62.69
2022-10-22T17:41:17.368Z,62.82
2022-10-22T17:44:22.678Z,63.66
2022-10-22T17:47:26.110Z,64.14
2022-10-22T17:50:29.239Z,64.60
2022-10-22T17:53:32.484Z,65.05
2022-10-22T17:56:40.493Z,64.88
2022-10-22T17:59:45.523Z,65.05
2022-10-22T18:02:54.325Z,65.28
2022-10-22T18:06:06.411Z,65.69
2022-10-22T18:09:13.264Z,65.74
2022-10-22T18:12:18.317Z,66.43
2022-10-22T18:15:20.493Z,66.48
2022-10-22T18:18:25.374Z,66.86
2022-10-22T18:21:30.322Z,67.09
2022-10-22T18:24:32.638Z,67.42
2022-10-22T18:27:39.257Z,67.52
2022-10-22T18:30:41.828Z,67.40
2022-10-22T18:33:46.342Z,67.64
2022-10-22T18:36:48.854Z,67.29
2022-10-22T18:39:53.209Z,67.13
2022-10-22T18:42:59.140Z,67.55
2022-10-22T18:46:01.516Z,67.43
2022-10-22T18:49:07.131Z,67.27
2022-10-22T18:52:10.399Z,67.84
2022-10-22T18:55:18.279Z,67.54
2022-10-22T18:58:23.579Z,67.65
2022-10-22T19:01:29.574Z,68.03
2022-10-22T19:04:41.491Z,68.10
2022-10-22T19:07:46.038Z,68.03
2022-10-22T19:10:48.582Z,68.01
2022-10-22T19:13:53.164Z,68.20
2022-10-22T19:16:55.615Z,67.84
2022-10-22T19:20:23.315Z,67.63
2022-10-22T19:23:25.802Z,67.97
2022-10-22T19:26:31.754Z,67.65
2022-10-22T19:29:38.801Z,67.35
2022-10-22T19:32:49.684Z,67.95
2022-10-22T19:36:12.755Z,67.99
2022-10-22T19:39:18.797Z,67.25
2022-10-22T19:42:21.413Z,67.68
2022-10-22T19:45:26.297Z,67.32
2022-10-22T19:48:32.520Z,67.08
2022-10-22T19:51:35.756Z,67.10
2022-10-22T19:58:24.998Z,67.18
2022-10-22T20:01:28.390Z,67.28
2022-10-22T20:05:20.783Z,68.04
2022-10-22T20:08:23.037Z,68.12
2022-10-22T20:11:51.316Z,67.41
2022-10-22T20:14:55.054Z,67.33
2022-10-22T20:17:58.486Z,67.85
2022-10-22T20:21:07.846Z,67.98
2022-10-22T20:24:11.544Z,67.31
2022-10-22T20:27:13.973Z,67.88
2022-10-22T20:33:20.093Z,67.92
2022-10-22T20:36:23.916Z,67.74
2022-10-22T20:39:25.935Z,68.18
2022-10-22T20:42:29.733Z,68.59
2022-10-22T20:45:32.212Z,68.72
2022-10-22T20:48:34.856Z,68.53
2022-10-22T20:51:39.148Z,68.53
2022-10-22T20:54:44.262Z,68.46
2022-10-22T20:57:46.770Z,68.50
2022-10-22T21:00:51.220Z,68.78
2022-10-22T21:03:53.489Z,68.89
2022-10-22T21:06:58.213Z,68.96
2022-10-22T21:10:00.567Z,68.67
2022-10-22T21:13:05.075Z,68.28
2022-10-22T21:16:13.570Z,68.74
2022-10-22T21:19:16.562Z,68.51
2022-10-22T21:22:18.682Z,68.27
2022-10-22T21:25:20.744Z,68.71
2022-10-22T21:28:26.079Z,68.93
2022-10-22T21:31:28.263Z,69.42
2022-10-22T21:34:30.793Z,68.93
2022-10-22T21:37:36.843Z,69.62
2022-10-22T21:40:39.808Z,69.65
2022-10-22T21:43:44.023Z,69.68
2022-10-22T21:46:46.789Z,68.76
2022-10-22T21:49:49.585Z,68.43
2022-10-22T21:52:54.617Z,69.13
2022-10-22T21:55:56.649Z,69.18
2022-10-22T21:58:59.897Z,68.63
2022-10-22T22:02:05.789Z,69.18
2022-10-22T22:05:09.301Z,69.34
2022-10-22T22:08:14.692Z,69.45
2022-10-22T22:11:19.298Z,69.55
2022-10-22T22:14:27.517Z,68.98
2022-10-22T22:17:29.624Z,69.44
2022-10-22T22:20:35.326Z,69.56
2022-10-22T22:23:39.596Z,69.25
2022-10-22T22:26:42.808Z,69.08
2022-10-22T22:29:45.800Z,70.16
2022-10-22T22:32:48.848Z,69.99
2022-10-22T22:35:51.817Z,69.01
2022-10-22T22:38:56.334Z,69.63
2022-10-22T22:41:58.473Z,70.25
2022-10-22T22:45:00.411Z,70.52
2022-10-22T22:48:03.106Z,70.06
2022-10-22T22:51:06.059Z,70.23
2022-10-22T22:54:09.961Z,70.17
2022-10-22T22:57:12.052Z,70.19
2022-10-22T23:00:14.775Z,69.96
2022-10-22T23:03:18.494Z,69.79
2022-10-22T23:06:27.840Z,70.97
2022-10-22T23:09:29.885Z,70.57
2022-10-22T23:12:32.138Z,70.31
2022-10-22T23:15:34.147Z,69.91
2022-10-22T23:18:41.505Z,70.67
2022-10-22T23:21:49.735Z,71.30
2022-10-22T23:24:51.828Z,70.62
2022-10-22T23:27:53.867Z,70.79
2022-10-22T23:30:58.331Z,71.63
2022-10-22T23:34:01.137Z,71.43
2022-10-22T23:37:03.990Z,71.90
2022-10-22T23:40:07.110Z,70.71
2022-10-22T23:43:09.289Z,71.64
2022-10-22T23:46:13.931Z,72.14
2022-10-22T23:49:20.356Z,70.74
2022-10-22T23:52:23.681Z,71.44
2022-10-22T23:55:25.949Z,71.46
2022-10-22T23:58:28.688Z,70.62
